createdAt,value
2023-03-12T00:00:04.391Z,1.26
2023-03-12T00:02:32.048Z,1.25
2023-03-12T00:04:59.551Z,1.25
2023-03-12T00:07:27.125Z,1.27
2023-03-12T00:09:56.170Z,1.25
2023-03-12T00:12:23.664Z,1.26
2023-03-12T00:14:51.194Z,1.24
2023-03-12T00:17:18.735Z,1.24
2023-03-12T00:19:46.260Z,1.25
2023-03-12T00:22:14.172Z,1.23
2023-03-12T00:24:41.698Z,1.23
2023-03-12T00:27:10.543Z,1.23
2023-03-12T00:29:38.004Z,1.22
2023-03-12T00:32:05.767Z,1.21
2023-03-12T00:34:33.526Z,1.19
2023-03-12T00:37:01.020Z,1.18
2023-03-12T00:39:28.497Z,1.18
2023-03-12T00:41:56.013Z,1.16
2023-03-12T00:44:24.863Z,1.16
2023-03-12T00:46:52.384Z,1.14
2023-03-12T00:49:19.890Z,1.14
2023-03-12T00:51:47.329Z,1.14
2023-03-12T00:54:14.795Z,1.14
2023-03-12T00:56:42.238Z,1.13
2023-03-12T00:59:09.709Z,1.11
2023-03-12T01:01:38.664Z,1.11
2023-03-12T01:04:06.255Z,1.13
2023-03-12T01:06:33.790Z,1.10
2023-03-12T01:09:02.119Z,1.11
2023-03-12T01:11:30.892Z,1.10
2023-03-12T01:13:58.426Z,1.10
2023-03-12T01:16:28.262Z,1.10
2023-03-12T01:18:57.274Z,1.10
2023-03-12T01:21:24.873Z,1.11
2023-03-12T01:23:52.447Z,1.11
2023-03-12T01:26:19.888Z,1.11
2023-03-12T01:28:47.402Z,1.11
2023-03-12T01:31:15.703Z,1.12
2023-03-12T01:33:43.348Z,1.13
2023-03-12T01:36:17.549Z,1.14
2023-03-12T01:38:45.061Z,1.14
2023-03-12T01:41:12.541Z,1.14
2023-03-12T01:43:40.390Z,1.14
2023-03-12T01:46:11.343Z,1.15
2023-03-12T01:48:40.059Z,1.14
2023-03-12T01:51:07.824Z,1.15
2023-03-12T01:53:36.815Z,1.16
2023-03-12T01:56:04.417Z,1.16
2023-03-12T01:58:32.072Z,1.17
2023-03-12T02:00:59.635Z,1.18
2023-03-12T02:03:27.179Z,1.18
2023-03-12T02:05:55.104Z,1.17
2023-03-12T02:08:22.634Z,1.18
2023-03-12T02:10:51.596Z,1.19
2023-03-12T02:13:19.099Z,1.20
2023-03-12T02:15:46.680Z,1.21
2023-03-12T02:18:15.046Z,1.20
2023-03-12T02:20:43.199Z,1.21
2023-03-12T02:23:11.796Z,1.22
2023-03-12T02:25:40.937Z,1.21
2023-03-12T02:28:08.992Z,1.22
2023-03-12T02:30:36.510Z,1.21
2023-03-12T02:33:07.112Z,1.22
2023-03-12T02:35:34.706Z,1.22
2023-03-12T02:38:02.293Z,1.22
2023-03-12T02:40:30.763Z,1.22
2023-03-12T02:42:59.681Z,1.22
2023-03-12T02:45:27.280Z,1.21
2023-03-12T02:47:54.888Z,1.22
2023-03-12T02:50:22.533Z,1.22
2023-03-12T02:52:50.036Z,1.22
2023-03-12T02:55:17.502Z,1.22
2023-03-12T02:57:45.066Z,1.23
2023-03-12T03:00:14.635Z,1.23
2023-03-12T03:02:42.717Z,1.21
2023-03-12T03:05:11.148Z,1.22
2023-03-12T03:07:38.738Z,1.21
2023-03-12T03:10:06.995Z,1.22
2023-03-12T03:12:34.751Z,1.22
2023-03-12T03:15:02.256Z,1.21
2023-03-12T03:17:31.220Z,1.23
2023-03-12T03:19:58.736Z,1.22
2023-03-12T03:22:26.319Z,1.24
2023-03-12T03:24:54.000Z,1.24
2023-03-12T03:27:21.474Z,1.24
2023-03-12T03:32:15.333Z,1.26
2023-03-12T03:34:44.299Z,1.26
2023-03-12T03:37:11.830Z,1.26
2023-03-12T03:39:39.331Z,1.27
2023-03-12T03:42:06.944Z,1.27
2023-03-12T03:44:34.461Z,1.29
2023-03-12T03:47:02.362Z,1.30
2023-03-12T03:49:29.807Z,1.29
2023-03-12T03:51:58.945Z,1.30
2023-03-12T03:54:26.541Z,1.30
2023-03-12T03:56:54.046Z,1.32
2023-03-12T03:59:21.519Z,1.31
2023-03-12T04:01:49.065Z,1.31
2023-03-12T04:04:16.519Z,1.31
2023-03-12T04:06:44.051Z,1.31
2023-03-12T04:09:12.919Z,1.31
2023-03-12T04:11:40.429Z,1.31
2023-03-12T04:14:07.986Z,1.32
2023-03-12T04:16:35.486Z,1.31
2023-03-12T04:19:02.998Z,1.32
2023-03-12T04:21:30.521Z,1.31
2023-03-12T04:23:57.985Z,1.30
2023-03-12T04:26:26.806Z,1.30
2023-03-12T04:28:54.329Z,1.30
2023-03-12T04:31:22.023Z,1.30
2023-03-12T04:33:49.496Z,1.31
2023-03-12T04:36:16.951Z,1.31
2023-03-12T04:38:44.411Z,1.32
2023-03-12T04:41:13.027Z,1.32
2023-03-12T04:43:41.937Z,1.32
2023-03-12T04:46:09.685Z,1.32
2023-03-12T04:48:37.357Z,1.31
2023-03-12T04:51:05.453Z,1.32
2023-03-12T04:53:33.017Z,1.32
2023-03-12T04:56:00.517Z,1.34
2023-03-12T04:58:28.229Z,1.34
2023-03-12T05:00:57.043Z,1.35
2023-03-12T05:03:24.683Z,1.35
2023-03-12T05:05:52.207Z,1.35
2023-03-12T05:08:19.720Z,1.34
2023-03-12T05:10:47.258Z,1.35
2023-03-12T05:13:15.175Z,1.35
2023-03-12T05:15:42.696Z,1.37
2023-03-12T05:18:11.639Z,1.36
2023-03-12T05:20:39.184Z,1.37
2023-03-12T05:23:06.691Z,1.36
2023-03-12T05:25:34.245Z,1.37
2023-03-12T05:28:01.758Z,1.39
2023-03-12T05:30:29.237Z,1.39
2023-03-12T05:32:56.752Z,1.39
2023-03-12T05:35:25.706Z,1.41
2023-03-12T05:37:53.138Z,1.42
2023-03-12T05:40:20.718Z,1.43
2023-03-12T05:42:48.373Z,1.45
2023-03-12T05:45:15.908Z,1.44
2023-03-12T05:47:43.505Z,1.45
2023-03-12T05:50:11.826Z,1.46
2023-03-12T05:52:40.710Z,1.47
2023-03-12T05:55:08.883Z,1.47
2023-03-12T05:57:36.458Z,1.48
2023-03-12T06:00:04.501Z,1.47
2023-03-12T06:02:32.086Z,1.48
2023-03-12T06:04:59.747Z,1.50
2023-03-12T06:07:27.194Z,1.50
2023-03-12T06:09:56.080Z,1.52
2023-03-12T06:12:23.541Z,1.52
2023-03-12T06:14:50.991Z,1.53
2023-03-12T06:17:18.506Z,1.54
2023-03-12T06:19:46.000Z,1.56
2023-03-12T06:22:13.458Z,1.56
2023-03-12T06:24:42.648Z,1.58
2023-03-12T06:27:11.490Z,1.58
2023-03-12T06:29:38.962Z,1.58
2023-03-12T06:32:06.624Z,1.59
2023-03-12T06:34:34.228Z,1.58
2023-03-12T06:37:01.896Z,1.59
2023-03-12T06:39:29.976Z,1.61
2023-03-12T06:41:57.546Z,1.61
2023-03-12T06:44:26.444Z,1.62
2023-03-12T06:46:53.902Z,1.64
2023-03-12T06:49:21.411Z,1.65
2023-03-12T06:51:48.931Z,1.66
2023-03-12T06:54:16.596Z,1.66
2023-03-12T06:56:44.064Z,1.67
2023-03-12T06:59:11.602Z,1.70
2023-03-12T07:01:40.603Z,1.72
2023-03-12T07:04:08.078Z,1.73
2023-03-12T07:06:35.556Z,1.74
2023-03-12T07:09:03.060Z,1.76
2023-03-12T07:11:30.587Z,1.76
2023-03-12T07:13:58.457Z,1.77
2023-03-12T07:16:25.929Z,1.78
2023-03-12T07:18:54.829Z,1.79
2023-03-12T07:21:23.761Z,1.79
2023-03-12T07:23:51.691Z,1.81
2023-03-12T07:26:19.372Z,1.82
2023-03-12T07:28:46.907Z,1.84
2023-03-12T07:31:14.453Z,1.85
2023-03-12T07:33:42.076Z,1.87
2023-03-12T07:36:11.175Z,1.89
2023-03-12T07:38:38.799Z,1.88
2023-03-12T07:41:06.386Z,1.90
2023-03-12T07:43:33.943Z,1.90
2023-03-12T07:46:01.419Z,1.91
2023-03-12T07:48:28.906Z,1.92
2023-03-12T07:50:56.443Z,1.94
2023-03-12T07:53:25.347Z,1.95
2023-03-12T07:55:53.107Z,1.95
2023-03-12T07:58:20.785Z,1.99
2023-03-12T08:00:49.031Z,1.99
2023-03-12T08:03:18.504Z,2.00
2023-03-12T08:05:46.629Z,2.01
2023-03-12T08:08:14.231Z,2.01
2023-03-12T08:10:43.235Z,2.01
2023-03-12T08:13:10.725Z,2.01
2023-03-12T08:15:38.297Z,2.05
2023-03-12T08:18:05.868Z,2.05
2023-03-12T08:20:33.348Z,2.05
2023-03-12T08:23:00.896Z,2.05
2023-03-12T08:25:28.630Z,2.05
2023-03-12T08:27:57.490Z,2.06
2023-03-12T08:30:25.028Z,2.06
2023-03-12T08:32:52.625Z,2.07
2023-03-12T08:35:20.141Z,2.07
2023-03-12T08:37:47.712Z,2.09
2023-03-12T08:40:15.320Z,2.09
2023-03-12T08:42:42.984Z,2.11
2023-03-12T08:45:12.672Z,2.12
2023-03-12T08:47:41.678Z,2.14
2023-03-12T08:50:09.850Z,2.15
2023-03-12T08:52:37.383Z,2.17
2023-03-12T08:55:05.969Z,2.19
2023-03-12T08:57:33.513Z,2.21
2023-03-12T09:00:00.964Z,2.21
2023-03-12T09:02:29.901Z,2.23
2023-03-12T09:04:57.421Z,2.25
2023-03-12T09:07:24.911Z,2.26
2023-03-12T09:09:52.500Z,2.27
2023-03-12T09:12:19.991Z,2.27
2023-03-12T09:15:03.122Z,2.28
2023-03-12T09:17:32.848Z,2.27
2023-03-12T09:20:00.769Z,2.27
2023-03-12T09:22:29.858Z,2.28
2023-03-12T09:24:57.354Z,2.29
2023-03-12T09:27:24.851Z,2.30
2023-03-12T09:30:00.121Z,2.31
2023-03-12T09:32:28.404Z,2.31
2023-03-12T09:34:57.330Z,2.33
2023-03-12T09:37:24.841Z,2.33
2023-03-12T09:39:52.617Z,2.35
2023-03-12T09:42:22.966Z,2.38
2023-03-12T09:44:50.441Z,2.40
2023-03-12T09:47:20.455Z,2.43
2023-03-12T09:49:48.763Z,2.44
2023-03-12T09:52:19.684Z,2.46
2023-03-12T09:54:49.561Z,2.47
2023-03-12T09:57:18.306Z,2.50
2023-03-12T09:59:45.747Z,2.51
2023-03-12T10:02:19.591Z,2.54
2023-03-12T10:04:58.847Z,2.55
2023-03-12T10:07:29.784Z,2.59
2023-03-12T10:10:05.005Z,2.61
2023-03-12T10:12:35.710Z,2.65
2023-03-12T10:15:07.244Z,2.67
2023-03-12T10:17:38.901Z,2.71
2023-03-12T10:20:14.406Z,2.73
2023-03-12T10:22:47.806Z,2.76
2023-03-12T10:25:17.289Z,2.80
2023-03-12T10:27:44.849Z,2.84
2023-03-12T10:30:15.428Z,2.88
2023-03-12T10:32:43.472Z,2.93
2023-03-12T10:35:14.758Z,2.96
2023-03-12T10:37:43.522Z,3.02
2023-03-12T10:40:16.436Z,3.07
2023-03-12T10:42:44.145Z,3.12
2023-03-12T10:45:20.306Z,3.19
2023-03-12T10:47:49.646Z,3.23
2023-03-12T10:50:18.230Z,3.26
2023-03-12T10:52:46.091Z,3.30
2023-03-12T10:55:21.608Z,3.34
2023-03-12T10:57:49.300Z,3.39
2023-03-12T11:00:19.692Z,3.43
2023-03-12T11:02:47.841Z,3.47
2023-03-12T11:05:22.689Z,3.50
2023-03-12T11:07:50.260Z,3.54
2023-03-12T11:10:20.449Z,3.60
2023-03-12T11:12:58.331Z,3.66
2023-03-12T11:15:26.708Z,3.70
2023-03-12T11:17:54.242Z,3.74
2023-03-12T11:20:28.282Z,3.77
2023-03-12T11:22:55.802Z,3.80
2023-03-12T11:25:25.864Z,3.85
2023-03-12T11:27:54.315Z,3.89
2023-03-12T11:30:23.537Z,3.94
2023-03-12T11:32:51.298Z,3.97
2023-03-12T11:35:19.954Z,4.01
2023-03-12T11:37:51.242Z,4.02
2023-03-12T11:40:20.268Z,4.05
2023-03-12T11:42:53.267Z,4.08
2023-03-12T11:45:23.071Z,4.13
2023-03-12T11:47:54.513Z,4.15
2023-03-12T11:50:25.741Z,4.20
2023-03-12T11:52:59.948Z,4.23
2023-03-12T11:55:48.328Z,4.27
2023-03-12T11:58:21.385Z,4.32
2023-03-12T12:00:50.248Z,4.39
2023-03-12T12:03:41.806Z,4.45
2023-03-12T12:06:10.056Z,4.51
2023-03-12T12:08:43.594Z,4.56
2023-03-12T12:11:11.869Z,4.61
2023-03-12T12:13:43.318Z,4.68
2023-03-12T12:16:16.226Z,4.74
2023-03-12T12:18:47.101Z,4.80
2023-03-12T12:21:18.869Z,4.87
2023-03-12T12:23:48.774Z,4.95
2023-03-12T12:26:17.325Z,5.02
2023-03-12T12:28:49.254Z,5.10
2023-03-12T12:31:20.363Z,5.20
2023-03-12T12:33:51.748Z,5.32
2023-03-12T12:36:19.229Z,5.40
2023-03-12T12:38:47.932Z,5.48
2023-03-12T12:41:16.607Z,5.54
2023-03-12T12:43:44.787Z,5.62
2023-03-12T12:46:16.074Z,5.65
2023-03-12T12:48:44.498Z,5.75
2023-03-12T12:51:12.140Z,5.78
2023-03-12T12:53:41.848Z,5.83
2023-03-12T12:56:13.581Z,5.88
2023-03-12T12:58:59.950Z,5.93
2023-03-12T13:01:28.986Z,6.01
2023-03-12T13:03:57.856Z,6.08
2023-03-12T13:06:28.610Z,6.17
2023-03-12T13:09:00.154Z,6.25
2023-03-12T13:11:29.027Z,6.33
2023-03-12T13:14:29.477Z,6.42
2023-03-12T13:17:08.641Z,6.50
2023-03-12T13:19:40.634Z,6.57
2023-03-12T13:22:10.470Z,6.62
2023-03-12T13:24:40.713Z,6.66
2023-03-12T13:27:10.466Z,6.72
2023-03-12T13:29:39.703Z,6.78
2023-03-12T13:32:09.194Z,6.79
2023-03-12T13:34:46.630Z,6.84
2023-03-12T13:37:44.083Z,6.86
2023-03-12T13:40:26.422Z,6.89
2023-03-12T13:43:02.310Z,6.93
2023-03-12T13:45:31.675Z,6.95
2023-03-12T13:48:02.220Z,6.98
2023-03-12T13:50:29.958Z,7.00
2023-03-12T13:53:02.084Z,7.01
2023-03-12T13:55:30.219Z,7.03
2023-03-12T13:57:58.201Z,7.03
2023-03-12T14:00:26.765Z,7.03
2023-03-12T14:02:54.892Z,7.04
2023-03-12T14:05:23.748Z,7.06
2023-03-12T14:08:07.008Z,7.06
2023-03-12T14:10:36.482Z,7.09
2023-03-12T14:13:07.725Z,7.14
2023-03-12T14:15:36.087Z,7.13
2023-03-12T14:18:05.358Z,7.13
2023-03-12T14:20:34.306Z,7.15
2023-03-12T14:23:04.030Z,7.14
2023-03-12T14:25:35.256Z,7.14
2023-03-12T14:28:03.199Z,7.14
2023-03-12T14:30:33.166Z,7.16
2023-03-12T14:33:01.546Z,7.18
2023-03-12T14:35:30.342Z,7.20
2023-03-12T14:38:00.186Z,7.21
2023-03-12T14:40:31.570Z,7.27
2023-03-12T14:43:00.522Z,7.29
2023-03-12T14:45:28.175Z,7.33
2023-03-12T14:47:56.508Z,7.35
2023-03-12T14:50:24.895Z,7.36
2023-03-12T14:52:52.533Z,7.38
2023-03-12T14:55:22.550Z,7.42
2023-03-12T14:57:50.374Z,7.44
2023-03-12T15:00:24.879Z,7.47
2023-03-12T15:02:52.769Z,7.52
2023-03-12T15:05:20.392Z,7.55
2023-03-12T15:07:47.931Z,7.57
2023-03-12T15:10:19.188Z,7.58
2023-03-12T15:12:48.199Z,7.62
2023-03-12T15:15:22.174Z,7.65
2023-03-12T15:17:49.612Z,7.71
2023-03-12T15:20:17.223Z,7.77
2023-03-12T15:22:44.762Z,7.83
2023-03-12T15:25:25.118Z,7.88
2023-03-12T15:28:03.168Z,7.91
2023-03-12T15:30:30.848Z,7.93
2023-03-12T15:33:05.457Z,7.95
2023-03-12T15:35:33.246Z,7.93
2023-03-12T15:38:00.858Z,7.94
2023-03-12T15:40:29.144Z,7.95
2023-03-12T15:42:59.185Z,7.96
2023-03-12T15:45:29.900Z,7.97
2023-03-12T15:47:57.483Z,7.96
2023-03-12T15:50:26.840Z,7.98
2023-03-12T15:53:01.780Z,7.97
2023-03-12T15:55:29.907Z,7.98
2023-03-12T15:57:58.214Z,7.99
2023-03-12T16:00:26.865Z,8.00
2023-03-12T16:02:56.845Z,8.02
2023-03-12T16:05:24.848Z,8.02
2023-03-12T16:07:52.361Z,8.03
2023-03-12T16:10:20.428Z,8.06
2023-03-12T16:12:48.113Z,8.06
2023-03-12T16:15:16.361Z,8.09
2023-03-12T16:17:44.090Z,8.11
2023-03-12T16:20:14.821Z,8.12
2023-03-12T16:22:42.489Z,8.13
2023-03-12T16:25:12.065Z,8.15
2023-03-12T16:27:40.223Z,8.16
2023-03-12T16:30:11.226Z,8.15
2023-03-12T16:32:38.751Z,8.14
2023-03-12T16:35:10.024Z,8.15
2023-03-12T16:37:38.938Z,8.14
2023-03-12T16:40:06.920Z,8.13
2023-03-12T16:42:35.048Z,8.11
2023-03-12T16:45:02.640Z,8.09
2023-03-12T16:47:30.128Z,8.08
2023-03-12T16:49:57.848Z,8.06
2023-03-12T16:52:26.576Z,8.06
2023-03-12T16:54:55.754Z,8.04
2023-03-12T16:57:25.844Z,8.02
2023-03-12T16:59:53.423Z,8.00
2023-03-12T17:02:21.499Z,8.00
2023-03-12T17:04:50.907Z,7.98
2023-03-12T17:07:18.462Z,7.97
2023-03-12T17:09:45.988Z,7.96
2023-03-12T17:12:18.355Z,7.95
2023-03-12T17:14:45.882Z,7.93
2023-03-12T17:17:13.337Z,7.93
2023-03-12T17:19:40.840Z,7.93
2023-03-12T17:22:08.273Z,7.91
2023-03-12T17:24:35.795Z,7.90
2023-03-12T17:27:03.376Z,7.88
2023-03-12T17:29:32.204Z,7.88
2023-03-12T17:31:59.711Z,7.88
2023-03-12T17:34:27.172Z,7.86
2023-03-12T17:36:54.644Z,7.85
2023-03-12T17:39:23.109Z,7.83
2023-03-12T17:41:50.642Z,7.83
2023-03-12T17:44:18.226Z,7.80
2023-03-12T17:46:58.492Z,7.78
2023-03-12T17:49:26.940Z,7.76
2023-03-12T17:51:54.436Z,7.75
2023-03-12T17:54:22.254Z,7.74
2023-03-12T17:56:49.753Z,7.74
2023-03-12T17:59:18.122Z,7.71
2023-03-12T18:01:46.945Z,7.72
2023-03-12T18:04:15.677Z,7.71
2023-03-12T18:06:43.305Z,7.71
2023-03-12T18:09:10.815Z,7.74
2023-03-12T18:11:38.283Z,7.76
2023-03-12T18:14:05.813Z,7.77
2023-03-12T18:16:33.436Z,7.78
2023-03-12T18:19:02.292Z,7.78
2023-03-12T18:21:29.755Z,7.77
2023-03-12T18:23:59.452Z,7.76
2023-03-12T18:26:29.570Z,7.77
2023-03-12T18:28:58.228Z,7.77
2023-03-12T18:31:25.776Z,7.77
2023-03-12T18:33:53.371Z,7.76
2023-03-12T18:36:22.255Z,7.77
2023-03-12T18:38:49.771Z,7.77
2023-03-12T18:41:17.263Z,7.78
2023-03-12T18:43:44.849Z,7.77
2023-03-12T18:46:13.037Z,7.76
2023-03-12T18:48:42.922Z,7.77
2023-03-12T18:51:11.423Z,7.76
2023-03-12T18:53:40.324Z,7.76
2023-03-12T18:56:08.070Z,7.74
2023-03-12T18:58:35.529Z,7.73
2023-03-12T19:01:03.112Z,7.75
2023-03-12T19:03:33.844Z,7.75
2023-03-12T19:06:02.028Z,7.77
2023-03-12T19:08:30.029Z,7.77
2023-03-12T19:10:58.862Z,7.79
2023-03-12T19:13:26.484Z,7.81
2023-03-12T19:15:58.318Z,7.84
2023-03-12T19:18:25.889Z,7.86
2023-03-12T19:20:54.111Z,7.86
2023-03-12T19:23:21.644Z,7.86
2023-03-12T19:25:49.184Z,7.88
2023-03-12T19:28:18.050Z,7.87
2023-03-12T19:30:45.532Z,7.87
2023-03-12T19:33:13.125Z,7.87
2023-03-12T19:35:41.025Z,7.87
2023-03-12T19:38:08.722Z,7.88
2023-03-12T19:40:36.216Z,7.86
2023-03-12T19:43:03.915Z,7.85
2023-03-12T19:45:32.817Z,7.85
2023-03-12T19:48:00.291Z,7.85
2023-03-12T19:50:27.842Z,7.82
2023-03-12T19:52:55.310Z,7.82
2023-03-12T19:55:22.822Z,7.80
2023-03-12T19:57:50.308Z,7.79
2023-03-12T20:00:17.966Z,7.78
2023-03-12T20:02:46.974Z,7.78
2023-03-12T20:05:14.572Z,7.76
2023-03-12T20:07:42.014Z,7.76
2023-03-12T20:10:10.969Z,7.76
2023-03-12T20:12:38.680Z,7.76
2023-03-12T20:15:06.782Z,7.74
2023-03-12T20:17:34.260Z,7.74
2023-03-12T20:20:05.850Z,7.74
2023-03-12T20:22:36.148Z,7.74
2023-03-12T20:25:03.823Z,7.74
2023-03-12T20:27:31.420Z,7.74
2023-03-12T20:29:58.936Z,7.73
2023-03-12T20:32:26.499Z,7.74
2023-03-12T20:34:53.959Z,7.72
2023-03-12T20:37:22.798Z,7.71
2023-03-12T20:39:50.280Z,7.73
2023-03-12T20:42:17.763Z,7.72
2023-03-12T20:44:45.225Z,7.72
2023-03-12T20:47:12.772Z,7.74
2023-03-12T20:49:40.345Z,7.78
2023-03-12T20:52:07.834Z,7.80
2023-03-12T20:54:36.729Z,7.81
2023-03-12T20:57:04.187Z,7.83
2023-03-12T20:59:31.705Z,7.82
2023-03-12T21:01:59.194Z,7.84
2023-03-12T21:04:26.694Z,7.83
2023-03-12T21:06:55.854Z,7.83
2023-03-12T21:09:23.544Z,7.83
2023-03-12T21:11:52.441Z,7.83
2023-03-12T21:14:19.961Z,7.84
2023-03-12T21:16:47.567Z,7.84
2023-03-12T21:19:15.060Z,7.85
2023-03-12T21:21:42.532Z,7.85
2023-03-12T21:24:10.038Z,7.85
2023-03-12T21:26:37.552Z,7.85
2023-03-12T21:29:06.415Z,7.85
2023-03-12T21:31:33.912Z,7.85
2023-03-12T21:34:01.500Z,7.87
2023-03-12T21:36:29.097Z,7.87
2023-03-12T21:38:56.583Z,7.88
2023-03-12T21:41:24.036Z,7.88
2023-03-12T21:43:51.595Z,7.91
2023-03-12T21:46:24.473Z,7.91
2023-03-12T21:48:52.238Z,7.93
2023-03-12T21:51:20.204Z,7.94
2023-03-12T21:53:47.699Z,7.95
2023-03-12T21:56:15.222Z,7.96
2023-03-12T21:58:42.735Z,7.97
2023-03-12T22:01:10.869Z,7.99
2023-03-12T22:03:40.029Z,8.00
2023-03-12T22:06:07.729Z,8.02
2023-03-12T22:08:35.376Z,8.02
2023-03-12T22:11:03.109Z,8.02
2023-03-12T22:13:30.673Z,8.03
2023-03-12T22:15:58.736Z,8.06
2023-03-12T22:18:26.290Z,8.07
2023-03-12T22:20:55.474Z,8.07
2023-03-12T22:23:23.219Z,8.09
2023-03-12T22:25:51.072Z,8.08
2023-03-12T22:28:18.720Z,8.07
2023-03-12T22:30:46.238Z,8.08
2023-03-12T22:33:13.924Z,8.05
2023-03-12T22:35:44.307Z,8.05
2023-03-12T22:38:13.196Z,8.02
2023-03-12T22:40:41.111Z,8.02
2023-03-12T22:43:08.608Z,8.03
2023-03-12T22:45:36.207Z,8.02
2023-03-12T22:48:03.954Z,8.02
2023-03-12T22:50:31.474Z,8.01
2023-03-12T22:52:59.376Z,8.00
2023-03-12T22:55:28.245Z,8.02
2023-03-12T22:57:55.730Z,8.00
2023-03-12T23:00:23.964Z,7.99
2023-03-12T23:02:51.654Z,8.02
2023-03-12T23:05:19.164Z,8.03
2023-03-12T23:07:46.698Z,8.04
2023-03-12T23:10:14.177Z,8.05
2023-03-12T23:12:43.030Z,8.06
2023-03-12T23:15:11.156Z,8.07
2023-03-12T23:17:38.698Z,8.07
2023-03-12T23:20:07.616Z,8.08
2023-03-12T23:22:35.681Z,8.09
2023-03-12T23:25:03.188Z,8.10
2023-03-12T23:27:30.722Z,8.13
2023-03-12T23:29:59.525Z,8.18
2023-03-12T23:32:27.138Z,8.20
2023-03-12T23:34:54.686Z,8.22
2023-03-12T23:37:22.205Z,8.22
2023-03-12T23:39:54.781Z,8.23
2023-03-12T23:42:22.565Z,8.26
2023-03-12T23:44:50.176Z,8.26
2023-03-12T23:47:19.032Z,8.27
2023-03-12T23:49:46.455Z,8.29
2023-03-12T23:52:13.987Z,8.30
2023-03-12T23:54:41.587Z,8.31
2023-03-12T23:57:09.109Z,8.32
2023-03-12T23:59:36.647Z,8.32
